Station Historical Data
Daily Summary for March 1, 2012 Units:  English    Metric   Both
« Previous Day
Next Day »
Daily Weekly Monthly Yearly Custom
  High: Low: Average:
Temperature: 71.9 °F 45.9 °F 60.9 °F
Dew Point: 62.2 °F 29.3 °F 37.6 °F
Humidity: 93% 24% 44%
Wind Speed: 14.0mph 0.0mph 2.7mph
Wind Gust: 14.0mph - -
Wind- - SSW
Pressure: 29.95 in 29.75 in -
Precipitation: 0.00 in    
Historical Graphs
 
 
Tabular Data for March 1, 2012
Time Temperature Dew Point Pressure Wind Wind Speed Wind Gust Humidity Rainfall Rate (Hourly) Conditions
00:00 64.3 °F 62.2 °F 29.85 in WSW 5.0 mph 8.0 mph 93% 0.00 in
00:01 64.3 °F 62.2 °F 29.85 in SW 5.0 mph 8.0 mph 93% 0.00 in
00:06 64.1 °F 61.4 °F 29.85 in WSW 8.0 mph 13.0 mph 91% 0.00 in
00:11 63.5 °F 59.6 °F 29.85 in WSW 6.0 mph 10.0 mph 87% 0.00 in
00:16 62.6 °F 58.4 °F 29.85 in SW 6.0 mph 7.0 mph 86% 0.00 in
00:21 62.0 °F 57.5 °F 29.86 in WSW 6.0 mph 9.0 mph 85% 0.00 in
00:26 61.6 °F 56.7 °F 29.86 in WSW 4.0 mph 9.0 mph 84% 0.00 in
00:31 61.2 °F 56.3 °F 29.86 in WNW 2.0 mph 7.0 mph 84% 0.00 in
00:36 60.8 °F 55.9 °F 29.86 in WSW 4.0 mph 6.0 mph 84% 0.00 in
00:41 60.6 °F 56.1 °F 29.86 in WSW 2.0 mph 6.0 mph 85% 0.00 in
00:47 60.3 °F 56.1 °F 29.87 in WSW 2.0 mph 5.0 mph 86% 0.00 in
00:52 60.2 °F 56.0 °F 29.87 in WSW 2.0 mph 4.0 mph 86% 0.00 in
00:57 60.1 °F 55.9 °F 29.87 in NW 14.0 mph 14.0 mph 86% 0.00 in
01:01 60.8 °F 47.3 °F 29.87 in NW 9.0 mph 11.0 mph 61% 0.00 in
01:07 61.0 °F 43.8 °F 29.88 in NW 3.0 mph 9.0 mph 53% 0.00 in
01:12 61.0 °F 44.2 °F 29.88 in NW 3.0 mph 9.0 mph 54% 0.00 in
01:17 60.3 °F 44.1 °F 29.88 in WNW 4.0 mph 5.0 mph 55% 0.00 in
01:22 60.2 °F 44.5 °F 29.88 in WNW 2.0 mph 4.0 mph 56% 0.00 in
01:27 59.9 °F 43.2 °F 29.88 in NW 3.0 mph 4.0 mph 54% 0.00 in
01:32 59.8 °F 43.6 °F 29.88 in WNW 3.0 mph 7.0 mph 55% 0.00 in
01:37 59.6 °F 43.4 °F 29.88 in West 1.0 mph 4.0 mph 55% 0.00 in
01:42 59.3 °F 43.2 °F 29.88 in WNW 3.0 mph 4.0 mph 55% 0.00 in
01:47 59.3 °F 42.7 °F 29.88 in WNW 4.0 mph 5.0 mph 54% 0.00 in
01:52 59.0 °F 42.9 °F 29.88 in WNW 3.0 mph 5.0 mph 55% 0.00 in
01:57 58.7 °F 42.6 °F 29.88 in WNW 3.0 mph 5.0 mph 55% 0.00 in
02:02 58.3 °F 42.7 °F 29.88 in NW 2.0 mph 3.0 mph 56% 0.00 in
02:07 58.1 °F 42.5 °F 29.88 in West 1.0 mph 2.0 mph 56% 0.00 in
02:12 57.9 °F 41.8 °F 29.89 in Calm   1.0 mph 55% 0.00 in
02:17 57.9 °F 41.8 °F 29.89 in West 1.0 mph 2.0 mph 55% 0.00 in
02:22 57.8 °F 41.8 °F 29.89 in Calm     55% 0.00 in
02:27 57.5 °F 41.9 °F 29.89 in Calm     56% 0.00 in
02:32 57.3 °F 41.8 °F 29.89 in WNW 1.0 mph 2.0 mph 56% 0.00 in
02:37 57.3 °F 41.8 °F 29.89 in WNW 1.0 mph 1.0 mph 56% 0.00 in
02:42 57.1 °F 41.6 °F 29.89 in WNW 1.0 mph 1.0 mph 56% 0.00 in
02:47 56.6 °F 41.1 °F 29.89 in WNW 1.0 mph 1.0 mph 56% 0.00 in
02:52 56.4 °F 40.9 °F 29.89 in WNW 1.0 mph 1.0 mph 56% 0.00 in
02:57 56.3 °F 40.8 °F 29.89 in WNW 2.0 mph 3.0 mph 56% 0.00 in
03:02 56.2 °F 40.3 °F 29.89 in WNW 1.0 mph 3.0 mph 55% 0.00 in
03:07 55.9 °F 40.0 °F 29.89 in NW 3.0 mph 4.0 mph 55% 0.00 in
03:12 55.5 °F 39.6 °F 29.89 in WNW 2.0 mph 4.0 mph 55% 0.00 in
03:17 55.1 °F 39.2 °F 29.90 in NNW 4.0 mph 5.0 mph 55% 0.00 in
03:22 55.0 °F 39.2 °F 29.90 in WNW 4.0 mph 6.0 mph 55% 0.00 in
03:27 54.8 °F 38.5 °F 29.90 in NW 3.0 mph 7.0 mph 54% 0.00 in
03:32 54.5 °F 39.6 °F 29.89 in NNW 4.0 mph 5.0 mph 57% 0.00 in
03:38 54.0 °F 38.7 °F 29.89 in NNW 3.0 mph 6.0 mph 56% 0.00 in
03:43 53.9 °F 37.7 °F 29.89 in NNW 4.0 mph 6.0 mph 54% 0.00 in
03:48 54.1 °F 35.9 °F 29.89 in NW 7.0 mph 7.0 mph 50% 0.00 in
03:53 54.0 °F 35.3 °F 29.89 in NW 7.0 mph 8.0 mph 49% 0.00 in
03:58 53.9 °F 34.7 °F 29.89 in NW 5.0 mph 7.0 mph 48% 0.00 in
04:03 53.8 °F 34.6 °F 29.89 in NW 5.0 mph 8.0 mph 48% 0.00 in
04:08 53.6 °F 34.4 °F 29.89 in NW 3.0 mph 6.0 mph 48% 0.00 in
04:13 53.6 °F 33.9 °F 29.89 in NW 3.0 mph 5.0 mph 47% 0.00 in
04:18 53.4 °F 34.2 °F 29.89 in NW 3.0 mph 4.0 mph 48% 0.00 in
04:23 53.1 °F 33.4 °F 29.89 in NW 3.0 mph 5.0 mph 47% 0.00 in
04:28 52.8 °F 33.7 °F 29.89 in NW 3.0 mph 6.0 mph 48% 0.00 in
04:33 52.6 °F 33.5 °F 29.89 in NW 3.0 mph 5.0 mph 48% 0.00 in
04:38 52.3 °F 33.7 °F 29.89 in WNW 5.0 mph 7.0 mph 49% 0.00 in
04:43 52.2 °F 33.6 °F 29.89 in NW 4.0 mph 5.0 mph 49% 0.00 in
04:48 52.2 °F 33.1 °F 29.89 in NW 3.0 mph 6.0 mph 48% 0.00 in
04:53 52.1 °F 33.0 °F 29.89 in NW 3.0 mph 6.0 mph 48% 0.00 in
04:58 51.9 °F 32.8 °F 29.90 in NW 3.0 mph 6.0 mph 48% 0.00 in
05:03 52.0 °F 32.4 °F 29.90 in NW 2.0 mph 5.0 mph 47% 0.00 in
05:08 52.0 °F 31.9 °F 29.90 in NW 3.0 mph 4.0 mph 46% 0.00 in
05:13 52.0 °F 31.9 °F 29.90 in NW 3.0 mph 3.0 mph 46% 0.00 in
05:18 51.9 °F 31.8 °F 29.90 in NW 2.0 mph 3.0 mph 46% 0.00 in
05:23 51.7 °F 31.6 °F 29.90 in NW 3.0 mph 4.0 mph 46% 0.00 in
05:28 51.6 °F 31.5 °F 29.91 in NW 3.0 mph 4.0 mph 46% 0.00 in
05:33 51.6 °F 31.5 °F 29.91 in NW 2.0 mph 3.0 mph 46% 0.00 in
05:38 51.6 °F 31.0 °F 29.91 in NW 2.0 mph 3.0 mph 45% 0.00 in
05:43 51.6 °F 31.0 °F 29.92 in NW 2.0 mph 3.0 mph 45% 0.00 in
05:48 51.5 °F 30.9 °F 29.92 in NW 2.0 mph 2.0 mph 45% 0.00 in
05:53 51.5 °F 30.9 °F 29.92 in NW 2.0 mph 2.0 mph 45% 0.00 in
05:58 51.4 °F 30.8 °F 29.92 in NW 2.0 mph 2.0 mph 45% 0.00 in
06:03 51.4 °F 30.2 °F 29.92 in NW 2.0 mph 3.0 mph 44% 0.00 in
06:08 51.3 °F 30.7 °F 29.92 in NW 2.0 mph 2.0 mph 45% 0.00 in
06:13 51.1 °F 30.5 °F 29.92 in NW 2.0 mph 2.0 mph 45% 0.00 in
06:18 50.9 °F 30.3 °F 29.92 in NW 2.0 mph 2.0 mph 45% 0.00 in
06:23 50.7 °F 30.1 °F 29.92 in NW 1.0 mph 2.0 mph 45% 0.00 in
06:28 50.6 °F 30.6 °F 29.92 in NW 1.0 mph 2.0 mph 46% 0.00 in
06:34 50.1 °F 30.1 °F 29.92 in Calm     46% 0.00 in
06:39 49.5 °F 30.1 °F 29.92 in Calm     47% 0.00 in
06:44 49.2 °F 29.9 °F 29.92 in NW 1.0 mph 1.0 mph 47% 0.00 in
06:49 49.5 °F 30.1 °F 29.92 in Calm   1.0 mph 47% 0.00 in
06:54 49.3 °F 29.9 °F 29.92 in Calm     47% 0.00 in
06:59 48.6 °F 29.8 °F 29.92 in Calm     48% 0.00 in
07:04 48.3 °F 30.0 °F 29.92 in Calm     49% 0.00 in
07:09 47.9 °F 29.7 °F 29.92 in Calm     49% 0.00 in
07:14 47.3 °F 29.6 °F 29.92 in Calm     50% 0.00 in
07:19 46.6 °F 29.5 °F 29.92 in Calm     51% 0.00 in
07:24 45.9 °F 29.3 °F 29.92 in Calm     52% 0.00 in
07:29 46.0 °F 29.4 °F 29.93 in Calm     52% 0.00 in
07:34 46.4 °F 29.3 °F 29.93 in Calm     51% 0.00 in
07:39 46.2 °F 29.6 °F 29.93 in Calm     52% 0.00 in
07:44 46.2 °F 29.6 °F 29.93 in Calm     52% 0.00 in
07:49 46.4 °F 29.8 °F 29.93 in Calm     52% 0.00 in
07:54 46.8 °F 30.1 °F 29.93 in Calm     52% 0.00 in
07:59 47.3 °F 30.6 °F 29.93 in Calm     52% 0.00 in
08:04 48.2 °F 30.9 °F 29.93 in Calm     51% 0.00 in
08:09 49.2 °F 31.4 °F 29.93 in NW 1.0 mph 1.0 mph 50% 0.00 in
08:14 49.3 °F 30.5 °F 29.94 in Calm     48% 0.00 in
08:19 49.9 °F 33.5 °F 29.94 in NW 1.0 mph 1.0 mph 53% 0.00 in
08:24 50.0 °F 34.5 °F 29.94 in Calm   1.0 mph 55% 0.00 in
08:29 50.4 °F 34.9 °F 29.94 in SSE 1.0 mph 1.0 mph 55% 0.00 in
08:34 51.3 °F 35.2 °F 29.95 in SE 1.0 mph 2.0 mph 54% 0.00 in
08:39 51.9 °F 35.8 °F 29.95 in SSE 2.0 mph 2.0 mph 54% 0.00 in
08:45 52.8 °F 38.9 °F 29.95 in SSE 2.0 mph 2.0 mph 59% 0.00 in
08:50 53.5 °F 40.8 °F 29.95 in SSE 1.0 mph 2.0 mph 62% 0.00 in
08:55 53.7 °F 36.5 °F 29.95 in SSW 1.0 mph 1.0 mph 52% 0.00 in
09:00 54.2 °F 37.0 °F 29.95 in Calm     52% 0.00 in
09:05 55.3 °F 39.4 °F 29.95 in Calm   1.0 mph 55% 0.00 in
09:10 55.4 °F 35.0 °F 29.95 in Calm   1.0 mph 46% 0.00 in
09:15 55.4 °F 35.0 °F 29.95 in West 1.0 mph 1.0 mph 46% 0.00 in
09:20 55.5 °F 36.2 °F 29.95 in WSW 1.0 mph 2.0 mph 48% 0.00 in
09:25 55.9 °F 36.0 °F 29.95 in Calm   2.0 mph 47% 0.00 in
09:30 56.3 °F 37.9 °F 29.95 in SW 1.0 mph 2.0 mph 50% 0.00 in
09:35 56.7 °F 35.0 °F 29.95 in West 1.0 mph 1.0 mph 44% 0.00 in
09:37 56.7 °F 35.6 °F 29.95 in Calm   1.0 mph 45% 0.00 in
09:42 57.8 °F 37.2 °F 29.95 in WNW 1.0 mph 1.0 mph 46% 0.00 in
09:47 58.1 °F 33.9 °F 29.95 in NW 1.0 mph 2.0 mph 40% 0.00 in
09:52 58.1 °F 34.5 °F 29.95 in Calm   1.0 mph 41% 0.00 in
09:57 58.6 °F 35.6 °F 29.95 in WNW 1.0 mph 1.0 mph 42% 0.00 in
10:02 58.9 °F 37.0 °F 29.95 in SSE 1.0 mph 1.0 mph 44% 0.00 in
10:07 59.6 °F 35.9 °F 29.95 in North 2.0 mph 2.0 mph 41% 0.00 in
10:12 59.3 °F 33.7 °F 29.95 in North 1.0 mph 3.0 mph 38% 0.00 in
10:17 59.2 °F 33.6 °F 29.95 in NW 1.0 mph 2.0 mph 38% 0.00 in
10:22 59.9 °F 35.5 °F 29.95 in Calm   1.0 mph 40% 0.00 in
10:27 60.6 °F 37.4 °F 29.95 in East 1.0 mph 2.0 mph 42% 0.00 in
10:32 60.3 °F 33.3 °F 29.95 in East 1.0 mph 2.0 mph 36% 0.00 in
10:37 60.6 °F 32.8 °F 29.95 in East 1.0 mph 3.0 mph 35% 0.00 in
10:42 60.9 °F 35.1 °F 29.94 in East 2.0 mph 3.0 mph 38% 0.00 in
10:47 60.8 °F 33.0 °F 29.94 in East 1.0 mph 3.0 mph 35% 0.00 in
10:52 60.8 °F 30.8 °F 29.95 in East 1.0 mph 2.0 mph 32% 0.00 in
10:57 60.8 °F 32.3 °F 29.94 in East 1.0 mph 3.0 mph 34% 0.00 in
11:02 60.9 °F 30.9 °F 29.94 in ESE 1.0 mph 4.0 mph 32% 0.00 in
11:07 61.5 °F 31.4 °F 29.95 in SE 2.0 mph 3.0 mph 32% 0.00 in
11:12 61.8 °F 30.9 °F 29.95 in ESE 2.0 mph 3.0 mph 31% 0.00 in
11:17 61.7 °F 32.3 °F 29.95 in SSE 1.0 mph 3.0 mph 33% 0.00 in
11:22 61.8 °F 33.2 °F 29.95 in SSW 3.0 mph 3.0 mph 34% 0.00 in
11:27 62.4 °F 32.2 °F 29.94 in Calm   2.0 mph 32% 0.00 in
11:32 62.9 °F 31.0 °F 29.94 in Calm   2.0 mph 30% 0.00 in
11:38 62.6 °F 33.9 °F 29.94 in West 1.0 mph 4.0 mph 34% 0.00 in
11:43 63.4 °F 32.3 °F 29.94 in SSE 3.0 mph 4.0 mph 31% 0.00 in
11:48 63.5 °F 36.1 °F 29.94 in NNW 1.0 mph 1.0 mph 36% 0.00 in
11:53 63.8 °F 31.8 °F 29.94 in SSE 5.0 mph 5.0 mph 30% 0.00 in
11:58 63.7 °F 30.9 °F 29.93 in ESE 1.0 mph 4.0 mph 29% 0.00 in
12:03 63.9 °F 32.7 °F 29.93 in WSW 2.0 mph 3.0 mph 31% 0.00 in
12:08 64.1 °F 35.9 °F 29.93 in South 1.0 mph 2.0 mph 35% 0.00 in
12:13 64.3 °F 33.8 °F 29.93 in SW 2.0 mph 4.0 mph 32% 0.00 in
12:18 64.5 °F 33.2 °F 29.93 in SE 4.0 mph 7.0 mph 31% 0.00 in
12:23 64.4 °F 33.9 °F 29.92 in South 3.0 mph 7.0 mph 32% 0.00 in
12:29 64.7 °F 32.6 °F 29.92 in South 5.0 mph 7.0 mph 30% 0.00 in
12:34 64.7 °F 31.7 °F 29.92 in Calm   7.0 mph 29% 0.00 in
12:39 65.1 °F 36.1 °F 29.92 in WSW 3.0 mph 8.0 mph 34% 0.00 in
12:44 64.8 °F 35.0 °F 29.92 in WNW 4.0 mph 6.0 mph 33% 0.00 in
12:49 65.0 °F 36.0 °F 29.91 in SW 1.0 mph 5.0 mph 34% 0.00 in
12:54 65.6 °F 33.4 °F 29.91 in ESE 1.0 mph 7.0 mph 30% 0.00 in
12:59 65.9 °F 36.0 °F 29.91 in SW 1.0 mph 5.0 mph 33% 0.00 in
13:04 66.6 °F 37.4 °F 29.91 in SSE 2.0 mph 5.0 mph 34% 0.00 in
13:09 66.5 °F 35.0 °F 29.90 in SE 2.0 mph 3.0 mph 31% 0.00 in
13:15 66.9 °F 35.3 °F 29.90 in SW 3.0 mph 5.0 mph 31% 0.00 in
13:20 66.7 °F 35.9 °F 29.89 in ESE 2.0 mph 6.0 mph 32% 0.00 in
13:25 66.3 °F 36.4 °F 29.89 in ESE 1.0 mph 8.0 mph 33% 0.00 in
13:30 66.1 °F 36.9 °F 29.88 in ESE 2.0 mph 4.0 mph 34% 0.00 in
13:35 66.6 °F 37.4 °F 29.88 in SSW 3.0 mph 9.0 mph 34% 0.00 in
13:40 67.3 °F 35.7 °F 29.87 in South 2.0 mph 7.0 mph 31% 0.00 in
13:45 67.7 °F 35.2 °F 29.87 in SW 6.0 mph 6.0 mph 30% 0.00 in
13:50 67.6 °F 36.7 °F 29.87 in SW 5.0 mph 6.0 mph 32% 0.00 in
13:55 67.8 °F 36.1 °F 29.86 in SE 1.0 mph 3.0 mph 31% 0.00 in
14:00 68.5 °F 34.1 °F 29.86 in South 3.0 mph 6.0 mph 28% 0.00 in
14:05 68.6 °F 35.1 °F 29.86 in SE 5.0 mph 9.0 mph 29% 0.00 in
14:10 68.5 °F 35.9 °F 29.86 in SSW 2.0 mph 4.0 mph 30% 0.00 in
14:15 68.8 °F 35.3 °F 29.86 in SSW 3.0 mph 5.0 mph 29% 0.00 in
14:20 68.9 °F 35.4 °F 29.85 in ESE 2.0 mph 6.0 mph 29% 0.00 in
14:25 68.7 °F 36.0 °F 29.85 in SE 6.0 mph 9.0 mph 30% 0.00 in
14:30 68.6 °F 36.8 °F 29.85 in SE 2.0 mph 10.0 mph 31% 0.00 in
14:35 68.5 °F 36.7 °F 29.85 in SSE 2.0 mph 8.0 mph 31% 0.00 in
14:40 69.0 °F 33.7 °F 29.85 in SW 9.0 mph 11.0 mph 27% 0.00 in
14:45 69.4 °F 34.9 °F 29.84 in SW 8.0 mph 10.0 mph 28% 0.00 in
14:50 69.5 °F 33.1 °F 29.84 in SW 4.0 mph 8.0 mph 26% 0.00 in
14:55 69.7 °F 33.3 °F 29.84 in WSW 2.0 mph 9.0 mph 26% 0.00 in
15:00 69.8 °F 35.3 °F 29.84 in SW 5.0 mph 9.0 mph 28% 0.00 in
15:05 69.8 °F 34.3 °F 29.84 in WSW 4.0 mph 7.0 mph 27% 0.00 in
15:10 70.1 °F 33.7 °F 29.84 in West 4.0 mph 10.0 mph 26% 0.00 in
15:15 70.2 °F 35.6 °F 29.83 in SW 4.0 mph 6.0 mph 28% 0.00 in
15:20 70.3 °F 36.6 °F 29.83 in South 6.0 mph 6.0 mph 29% 0.00 in
15:25 70.6 °F 35.9 °F 29.83 in SSW 6.0 mph 9.0 mph 28% 0.00 in
15:30 70.8 °F 36.1 °F 29.83 in SSW 4.0 mph 7.0 mph 28% 0.00 in
15:35 70.9 °F 32.3 °F 29.83 in West 4.0 mph 7.0 mph 24% 0.00 in
15:36 70.9 °F 33.4 °F 29.83 in SW 4.0 mph 4.0 mph 25% 0.00 in
15:41 70.7 °F 34.2 °F 29.83 in SW 4.0 mph 10.0 mph 26% 0.00 in
15:46 70.7 °F 34.2 °F 29.83 in SE 3.0 mph 5.0 mph 26% 0.00 in
15:51 71.2 °F 34.6 °F 29.83 in SW 4.0 mph 4.0 mph 26% 0.00 in
15:56 71.1 °F 33.5 °F 29.83 in SW 7.0 mph 9.0 mph 25% 0.00 in
16:01 71.1 °F 33.5 °F 29.83 in SSE 1.0 mph 4.0 mph 25% 0.00 in
16:06 71.6 °F 34.0 °F 29.83 in SE 2.0 mph 5.0 mph 25% 0.00 in
16:11 71.6 °F 34.9 °F 29.83 in South 4.0 mph 7.0 mph 26% 0.00 in
16:16 71.4 °F 35.7 °F 29.83 in SSW 5.0 mph 9.0 mph 27% 0.00 in
16:21 71.4 °F 35.7 °F 29.83 in WSW 6.0 mph 10.0 mph 27% 0.00 in
16:26 71.2 °F 34.6 °F 29.83 in South 5.0 mph 9.0 mph 26% 0.00 in
16:31 71.3 °F 35.6 °F 29.82 in SSW 3.0 mph 8.0 mph 27% 0.00 in
16:36 71.4 °F 35.7 °F 29.82 in SW 3.0 mph 5.0 mph 27% 0.00 in
16:41 71.6 °F 36.8 °F 29.82 in SW 4.0 mph 6.0 mph 28% 0.00 in
16:46 71.8 °F 36.0 °F 29.82 in South 6.0 mph 7.0 mph 27% 0.00 in
16:51 71.7 °F 35.0 °F 29.82 in SSE 3.0 mph 5.0 mph 26% 0.00 in
16:56 71.9 °F 37.1 °F 29.82 in SSW 4.0 mph 6.0 mph 28% 0.00 in
17:01 71.9 °F 35.2 °F 29.82 in SSW 3.0 mph 5.0 mph 26% 0.00 in
17:06 71.8 °F 37.0 °F 29.82 in SSE 3.0 mph 4.0 mph 28% 0.00 in
17:11 71.4 °F 35.7 °F 29.82 in SSE 2.0 mph 6.0 mph 27% 0.00 in
17:16 71.6 °F 36.8 °F 29.81 in Calm   3.0 mph 28% 0.00 in
17:21 71.8 °F 37.9 °F 29.81 in South 2.0 mph 3.0 mph 29% 0.00 in
17:27 71.8 °F 39.6 °F 29.81 in SSW 2.0 mph 4.0 mph 31% 0.00 in
17:32 71.6 °F 38.6 °F 29.81 in South 4.0 mph 5.0 mph 30% 0.00 in
17:37 71.4 °F 35.7 °F 29.81 in South 2.0 mph 4.0 mph 27% 0.00 in
17:42 71.3 °F 36.5 °F 29.81 in SSE 3.0 mph 5.0 mph 28% 0.00 in
17:47 71.0 °F 38.0 °F 29.81 in SSE 3.0 mph 3.0 mph 30% 0.00 in
17:52 70.4 °F 40.7 °F 29.81 in SE 2.0 mph 4.0 mph 34% 0.00 in
17:57 69.9 °F 40.3 °F 29.81 in SE 4.0 mph 4.0 mph 34% 0.00 in
18:02 69.4 °F 39.1 °F 29.80 in SE 2.0 mph 4.0 mph 33% 0.00 in
18:07 69.1 °F 38.8 °F 29.81 in SE 1.0 mph 3.0 mph 33% 0.00 in
18:12 68.7 °F 39.2 °F 29.81 in SE 1.0 mph 2.0 mph 34% 0.00 in
18:17 68.5 °F 38.3 °F 29.80 in ESE 2.0 mph 2.0 mph 33% 0.00 in
18:22 68.3 °F 38.1 °F 29.80 in ESE 2.0 mph 2.0 mph 33% 0.00 in
18:27 67.9 °F 37.8 °F 29.81 in ESE 2.0 mph 2.0 mph 33% 0.00 in
18:32 67.3 °F 38.7 °F 29.80 in ESE 2.0 mph 2.0 mph 35% 0.00 in
18:37 66.6 °F 39.5 °F 29.80 in Calm   1.0 mph 37% 0.00 in
18:42 65.8 °F 38.1 °F 29.80 in ESE 1.0 mph 1.0 mph 36% 0.00 in
18:47 65.6 °F 38.0 °F 29.80 in ESE 2.0 mph 2.0 mph 36% 0.00 in
18:52 65.3 °F 38.4 °F 29.80 in ESE 2.0 mph 2.0 mph 37% 0.00 in
18:57 64.8 °F 38.6 °F 29.80 in ESE 3.0 mph 3.0 mph 38% 0.00 in
19:02 64.5 °F 38.3 °F 29.80 in ESE 3.0 mph 3.0 mph 38% 0.00 in
19:07 64.5 °F 37.7 °F 29.80 in ESE 2.0 mph 2.0 mph 37% 0.00 in
19:12 64.6 °F 37.8 °F 29.80 in ESE 2.0 mph 3.0 mph 37% 0.00 in
19:17 64.6 °F 37.8 °F 29.80 in ESE 2.0 mph 3.0 mph 37% 0.00 in
19:22 64.6 °F 38.4 °F 29.80 in ESE 3.0 mph 3.0 mph 38% 0.00 in
19:27 64.3 °F 37.5 °F 29.79 in ESE 3.0 mph 3.0 mph 37% 0.00 in
19:32 64.5 °F 37.7 °F 29.80 in ESE 2.0 mph 3.0 mph 37% 0.00 in
19:37 64.5 °F 37.7 °F 29.79 in East 3.0 mph 4.0 mph 37% 0.00 in
19:42 64.3 °F 37.5 °F 29.79 in ESE 2.0 mph 3.0 mph 37% 0.00 in
19:47 63.8 °F 37.7 °F 29.79 in ESE 2.0 mph 4.0 mph 38% 0.00 in
19:52 63.3 °F 38.0 °F 29.79 in East 2.0 mph 2.0 mph 39% 0.00 in
19:57 63.4 °F 38.0 °F 29.79 in East 2.0 mph 3.0 mph 39% 0.00 in
20:02 63.6 °F 37.5 °F 29.79 in East 3.0 mph 3.0 mph 38% 0.00 in
20:07 63.8 °F 37.7 °F 29.78 in ESE 3.0 mph 4.0 mph 38% 0.00 in
20:13 63.7 °F 38.3 °F 29.78 in ESE 2.0 mph 3.0 mph 39% 0.00 in
20:18 63.7 °F 38.3 °F 29.78 in ESE 5.0 mph 5.0 mph 39% 0.00 in
20:23 63.3 °F 38.6 °F 29.78 in ESE 2.0 mph 4.0 mph 40% 0.00 in
20:28 63.2 °F 38.5 °F 29.78 in ESE 2.0 mph 3.0 mph 40% 0.00 in
20:33 63.1 °F 37.8 °F 29.78 in ESE 2.0 mph 3.0 mph 39% 0.00 in
20:38 62.9 °F 38.9 °F 29.78 in ESE 2.0 mph 2.0 mph 41% 0.00 in
20:43 62.3 °F 38.3 °F 29.78 in ESE 3.0 mph 3.0 mph 41% 0.00 in
20:48 61.7 °F 37.8 °F 29.77 in SE 2.0 mph 3.0 mph 41% 0.00 in
20:53 61.4 °F 38.1 °F 29.77 in SE 3.0 mph 3.0 mph 42% 0.00 in
20:58 62.0 °F 38.0 °F 29.77 in ESE 4.0 mph 4.0 mph 41% 0.00 in
21:03 62.4 °F 39.0 °F 29.77 in SE 4.0 mph 4.0 mph 42% 0.00 in
21:08 62.2 °F 38.8 °F 29.77 in SE 4.0 mph 5.0 mph 42% 0.00 in
21:13 62.2 °F 38.8 °F 29.77 in ESE 4.0 mph 5.0 mph 42% 0.00 in
21:18 62.4 °F 39.6 °F 29.77 in SE 4.0 mph 5.0 mph 43% 0.00 in
21:23 62.1 °F 40.0 °F 29.77 in ESE 4.0 mph 4.0 mph 44% 0.00 in
21:28 61.7 °F 40.2 °F 29.77 in ESE 4.0 mph 6.0 mph 45% 0.00 in
21:33 61.8 °F 40.3 °F 29.77 in SE 4.0 mph 5.0 mph 45% 0.00 in
21:38 62.1 °F 40.0 °F 29.77 in ESE 4.0 mph 5.0 mph 44% 0.00 in
21:43 62.2 °F 39.5 °F 29.77 in SE 4.0 mph 5.0 mph 43% 0.00 in
21:48 62.0 °F 39.9 °F 29.77 in ESE 4.0 mph 5.0 mph 44% 0.00 in
21:53 62.0 °F 39.9 °F 29.77 in ESE 3.0 mph 4.0 mph 44% 0.00 in
21:58 62.0 °F 40.4 °F 29.77 in East 3.0 mph 5.0 mph 45% 0.00 in
22:03 61.7 °F 40.7 °F 29.77 in ESE 4.0 mph 4.0 mph 46% 0.00 in
22:08 61.6 °F 40.6 °F 29.77 in East 4.0 mph 5.0 mph 46% 0.00 in
22:13 61.6 °F 40.6 °F 29.77 in ESE 4.0 mph 5.0 mph 46% 0.00 in
22:18 61.6 °F 40.6 °F 29.77 in ESE 3.0 mph 4.0 mph 46% 0.00 in
22:23 61.7 °F 40.7 °F 29.77 in ESE 5.0 mph 5.0 mph 46% 0.00 in
22:28 62.0 °F 41.6 °F 29.77 in ESE 4.0 mph 5.0 mph 47% 0.00 in
22:33 61.9 °F 41.5 °F 29.77 in ESE 4.0 mph 5.0 mph 47% 0.00 in
22:38 62.1 °F 42.2 °F 29.77 in SE 3.0 mph 6.0 mph 48% 0.00 in
22:43 62.0 °F 43.2 °F 29.77 in ESE 6.0 mph 6.0 mph 50% 0.00 in
22:48 62.1 °F 43.8 °F 29.77 in SE 4.0 mph 5.0 mph 51% 0.00 in
22:53 62.3 °F 44.5 °F 29.77 in ESE 4.0 mph 6.0 mph 52% 0.00 in
22:58 62.4 °F 45.1 °F 29.76 in SE 3.0 mph 6.0 mph 53% 0.00 in
23:03 62.4 °F 45.1 °F 29.76 in ESE 5.0 mph 5.0 mph 53% 0.00 in
23:08 62.4 °F 46.0 °F 29.76 in SE 4.0 mph 6.0 mph 55% 0.00 in
23:13 62.4 °F 46.0 °F 29.76 in SE 2.0 mph 5.0 mph 55% 0.00 in
23:18 62.6 °F 46.7 °F 29.76 in SE 4.0 mph 6.0 mph 56% 0.00 in
23:24 62.7 °F 47.7 °F 29.75 in ESE 4.0 mph 5.0 mph 58% 0.00 in
23:29 62.8 °F 48.3 °F 29.75 in ESE 7.0 mph 8.0 mph 59% 0.00 in
23:34 62.9 °F 49.7 °F 29.75 in SSE 8.0 mph 10.0 mph 62% 0.00 in
23:39 62.9 °F 49.7 °F 29.75 in SE 5.0 mph 7.0 mph 62% 0.00 in
23:44 62.7 °F 49.9 °F 29.75 in SSE 6.0 mph 7.0 mph 63% 0.00 in
23:49 62.4 °F 50.5 °F 29.75 in SE 5.0 mph 7.0 mph 65% 0.00 in
23:54 62.3 °F 50.8 °F 29.75 in SE 5.0 mph 7.0 mph 66% 0.00 in
23:59 62.4 °F 51.3 °F 29.75 in SE 6.0 mph 6.0 mph 67% 0.00 in
Compliments of Weather Underground